Terminal Aerodrome Forecast
Issued by NWS Portland, ME

Current Version | Previous Version | Text Only | Print | Product List | Glossary On
Versions: 1 2 3 4 5 6 7 8 9 10 11 12 13 14 15
487 FTUS41 KGYX 161723 TAFCON TAF KCON 161723Z 1618/1718 31011G19KT P6SM SCT040 FM162300 32007KT P6SM SKC FM170200 VRB03KT P6SM SKC FM171600 30010KT P6SM FEW250=

USA.gov is the U.S. government's official web portal to all federal, state and local government web resources and services.